Terminal Aerodrome Forecast
Issued by NWS

Home | Current Version | Previous Version | Text Only | Print | Product List | Glossary On
Versions: 1 2 3 4 5 6 7 8 9 10 11 12 13
000
FTUS43 KEAX 182328
TAFMKC
TAF
KMKC 182328Z 1900/1924 VRB03KT P6SM SCT250
     FM190800 18004KT 4SM BR BKN010
     FM191430 17009KT P6SM SCT025 BKN200=

USA.gov is the U.S. government's official web portal to all federal, state and local government web resources and services.